Accueil
METAR-TAF:

METAR-TAF

Aéroports :

Pyongyang, Corée du Nord

Aéroport international de Sunan

latitude: 39-02N, longitude: 125-47E, altitude: 36 m

METAR: absent

Heure: 00:44 (16:14 UTC)

Prévision

Le bulletin a été fait il y a 11 heures et 34 minutes, à 04:40 UTC
Prévision valable du 24 à 06 UTC au 25 à 06 UTC
Vent 14 kt de nord
Visibilité 10 km ou plus
pas de nuages en-dessous de 1500 mètres et pas de cumulonimbus.
Evoluant progressivement
du 24 à 09 UTC au 24 à 11 UTC
Vent 8 kt de ouest
Temporairement
du 24 à 18 UTC au 24 à 24 UTC
Nuages épars à une hauteur de 2000 ft
Nuages fragmentés à une hauteur de 3000 ft
Evoluant progressivement
du 25 à 01 UTC au 25 à 03 UTC
Vent 8 kt de ouest/nord-ouest

TAF: ZKPY 240440Z 2406/2506 35007MPS CAVOK BECMG 2409/2411 26004MPS TEMPO 2418/2424 SCT020 BKN030 BECMG 2501/2503 29004MPS TX02/2406Z TNM07/2422Z

Observations et prévisions météorologiques de plus de 4000 aéroports (messages METAR et TAF).

Les stations disponibles sont représentées par des disques jaunes et rouges sur la carte.

Passer la souris dessus pour voir le nom de la station.

Cliquer dessus pour voir les observations et prévisions météorologiques.

Pour changer de carte: cliquez sur les boutons verts avec une croix noire pour zoomer, sur le bouton vert avec un tiret pour effectuer un zoom arrière, ou sur les flèches vertes pour les cartes adjacentes.


METAR-TAF: